Tuesday, July 29, 2014
14:54 UTC
  |  Log In   |  Register Free
Airport Search:

Ellington Field Airport
(KEFD)

Ellington Field Airport Diagram
No Airport Diagram Available

FAA data valid effective July 24, 2014 until September 18, 2014 (unless otherwise noted).

 
 
 
 
 
 
 
 
 
 
 
 
 
 

Current Aviation Weather for Ellington Field Airport (KEFD)

The most recent METAR observation for KEFD was updated at: 1750 UTC
METAR Summary (Translated METAR)
KEFD
281750Z 00000KT 10SM FEW030 SCT250 33/23 A3012
KHOU
(6.7 nm NW from KEFD)
281753Z 28007KT 10SM FEW040 SCT250 33/21 A3010 RMK AO2 SLP196 8/101 T03330211 10333 20244 58008
TAF Summary (Translated TAF)
KEFD
2912/3018 27009KT 9999 SCT030 BKN250 QNH3003INS BECMG 2918/2919 18011KT 6000 -SHRA BKN040 QNH3001INS BECMG 3002/3003 18006KT 9999 NSW FEW030 QNH3004INS TX34/2921Z TN24/3011Z
KHOU
(6.7 nm NW from KEFD)
291120Z 2912/3012 30006KT P6SM SCT014 SCT250 TEMPO 2912/2914 BKN014 FM291900 VRB04KT P6SM VCTS SCT050CB FM300200 VRB03KT P6SM BKN040 FM300400 VRB02KT P6SM SCT250
  Airport Weather Conditions for KEFD

 Current Weather at EFD
82° F
Mostly Cloudy
West winds at 5.8 mph
EFD NOAA Radar

Pressure: 30.09 in
Humidity: 79%
Wind: West at 5.8 MPH (5 KT)
Dew Point: 75.2°F
Visibility: 9.00 mi


Airport Weather Forecast for KEFD

Translated METAR and TAF for KEFD
Translated METAR for KEFD (1448 UTC 29 July 2014)
found at http://aviationweather.gov/adds/metars/
 
METAR text: KEFD 291350Z 28005KT 10SM FEW020 SCT250 29/24 A3010
Conditions at: KEFD (HOUSTON/ELLINGTO, TX, US) observed 1350 UTC 29 July 2014
Temperature: 29.0°C (84°F)
Dewpoint: 24.0°C (75°F) [RH = 74%]
Pressure (altimeter): 30.10 inches Hg (1019.4 mb)
Winds: from the W (280 degrees) at 6 MPH (5 knots; 2.6 m/s)
Visibility: 10 or more miles (16+ km)
Ceiling: at least 12,000 feet AGL
Clouds: few clouds at 2000 feet AGL
scattered clouds at 25000 feet AGL
Weather: no significant weather observed at this time
Translated TAF for KEFD
Forecast for: KEFD (HOUSTON/ELLINGTO, TX, US)
TAF Text: TAF KEFD 2912/3018 27009KT 9999 SCT030 BKN250 QNH3003INS
Forecast period: 1200 to 1800 UTC 29 July 2014
Forecast type: FROM: standard forecast or significant change
Winds: from the W (270 degrees) at 10 MPH (9 knots; 4.7 m/s)
Visibility: 6 or more miles (10+ km)
Ceiling: 25000 feet AGL
Clouds: scattered clouds at 3000 feet AGL
broken clouds at 25000 feet AGL
Weather: no significant weather forecast for this period
TAF Text: BECMG 2918/2919 18011KT 6000 -SHRA BKN040 QNH3001INS
Forecast period: 1800 UTC 29 July 2014 to 0200 UTC 30 July 2014
Forecast type: BECOMING: Conditions expected to become as follows by 1900 UTC 29 July 2014
Winds: from the S (180 degrees) at 13 MPH (11 knots; 5.7 m/s)
Visibility: 4 miles (6 km)
Ceiling: 4000 feet AGL
Clouds: broken clouds at 4000 feet AGL
Weather: -SHRA  (light rain showers)
TAF Text: BECMG 3002/3003 18006KT 9999 NSW FEW030 QNH3004INS TX34/2921Z TN24/3011Z
Forecast period: 0200 to 1800 UTC 30 July 2014
Forecast type: BECOMING: Conditions expected to become as follows by 0300 UTC 30 July 2014
Winds: from the S (180 degrees) at 7 MPH (6 knots; 3.1 m/s)
Visibility: 6 or more miles (10+ km)
Clouds: few clouds at 3000 feet AGL
Weather: NSW  (no significant weather)

Find All Airport Services Find A Hotel Find A Rental Car Find A Golf Course Find A Restaurant $100 Hamburger



FBO's on the Field
FBO Company Facility Photos Services Transportation Aviation Fuel Prices: Prices include tax
Catering Weather Repair Courtesy Rental Type 100LL JetA JetA+ MOGAS 8087
 
Southwest Airport Services

This FBO has not yet been rated
FS:Texaco
Last Updated: Jul-24
Login to update fuel prices
SS:
Contact Southwest Airport ServicesMore FBO Information
 
Add another FBO Facility Photos Catering Weather Repair Courtesy Rental Type 100LL JetA JetA+ MOGAS 8087
Services Transportation Aviation Fuel Prices: Prices include tax


GlobalAir.com Airport Resource Center model-print
model-print
model-print
model-print